Time;durP1;ratioP1;P1;durP2;ratioP2;P2;SDS_P1;SDS_P2;PMS_P1;PMS_P2;Temp;Humidity;BMP_temperature;BMP_pressure;BME280_temperature;BME280_humidity;BME280_pressure;Samples;Min_cycle;Max_cycle;Signal;HPM_P1;HPM_P2
2023/04/15 00:00:00;;;;;;;25.13;13.60;;;;;;;6.21;100.00;100529.59;4973751;28;20057;-77
2023/04/15 00:02:25;;;;;;;24.75;13.82;;;;;;;6.24;100.00;100523.19;5006484;28;20049;-77
2023/04/15 00:04:51;;;;;;;22.73;13.03;;;;;;;6.24;100.00;100531.13;4990931;28;20074;-77
2023/04/15 00:07:16;;;;;;;33.90;13.37;;;;;;;6.19;100.00;100517.47;5006198;28;20034;-77
2023/04/15 00:09:43;;;;;;;25.95;13.43;;;;;;;6.28;100.00;100527.25;5006212;28;20072;-77
2023/04/15 00:12:10;;;;;;;27.83;15.18;;;;;;;6.25;100.00;100522.19;4965821;28;20034;-77
2023/04/15 00:14:35;;;;;;;38.15;16.27;;;;;;;6.30;100.00;100527.94;4990914;28;20060;-77
2023/04/15 00:17:02;;;;;;;33.22;16.15;;;;;;;6.39;100.00;100526.25;4998557;28;20049;-78
2023/04/15 00:19:27;;;;;;;;;;;;;;;6.39;100.00;100523.59;5006067;28;20100;-76
2023/04/15 00:21:53;;;;;;;27.83;14.88;;;;;;;6.35;100.00;100512.44;4989440;28;20371;-76
2023/04/15 00:24:18;;;;;;;39.73;18.60;;;;;;;6.30;100.00;100507.56;5005648;28;20022;-76
2023/04/15 00:26:43;;;;;;;39.90;18.90;;;;;;;6.31;100.00;100506.56;4989633;28;20042;-77
2023/04/15 00:29:09;;;;;;;40.13;19.33;;;;;;;6.21;100.00;100500.44;4973641;28;20066;-78
2023/04/15 00:31:34;;;;;;;44.67;18.98;;;;;;;6.23;100.00;100502.97;5006086;28;20117;-77
2023/04/15 00:34:01;;;;;;;39.53;18.90;;;;;;;6.29;100.00;100505.88;4989833;28;20042;-77
2023/04/15 00:36:26;;;;;;;46.20;20.27;;;;;;;6.24;100.00;100497.50;4989596;28;20125;-77
2023/04/15 00:38:52;;;;;;;38.42;20.17;;;;;;;6.38;100.00;100506.00;4990261;28;20976;-77
2023/04/15 00:41:18;;;;;;;48.58;22.00;;;;;;;6.41;100.00;100517.16;4989277;28;20038;-77
2023/04/15 00:43:43;;;;;;;44.35;19.88;;;;;;;6.37;100.00;100517.59;4989125;28;20030;-77
2023/04/15 00:46:14;;;;;;;47.42;21.40;;;;;;;6.40;100.00;100514.66;5005427;28;20484;-77
2023/04/15 00:48:39;;;;;;;51.22;23.15;;;;;;;6.30;100.00;100514.69;5005350;28;20049;-77
2023/04/15 00:51:06;;;;;;;63.88;23.35;;;;;;;6.34;100.00;100508.97;5005751;28;20018;-77
2023/04/15 00:53:31;;;;;;;85.15;26.75;;;;;;;6.34;100.00;100505.44;5004799;28;20038;-77
2023/04/15 00:55:57;;;;;;;61.35;26.60;;;;;;;6.41;100.00;100506.56;4988391;28;20036;-77
2023/04/15 00:58:22;;;;;;;69.30;28.27;;;;;;;6.51;100.00;100506.56;4988294;28;20128;-77
2023/04/15 01:00:53;;;;;;;65.13;25.35;;;;;;;6.49;100.00;100505.88;4989924;28;20380;-77
2023/04/15 01:03:18;;;;;;;102.55;29.85;;;;;;;6.44;100.00;100500.13;4988178;28;20507;-76
2023/04/15 01:05:43;;;;;;;79.45;29.90;;;;;;;6.51;100.00;100517.19;4988783;28;20069;-77
2023/04/15 01:08:09;;;;;;;71.37;26.80;;;;;;;6.52;100.00;100506.41;5004717;28;20031;-77
2023/04/15 01:10:34;;;;;;;67.70;26.63;;;;;;;6.52;100.00;100514.34;4989903;28;20118;-77
2023/04/15 01:13:01;;;;;;;95.43;29.97;;;;;;;6.58;100.00;100517.41;5004826;28;20479;-77
2023/04/15 01:15:26;;;;;;;121.82;32.97;;;;;;;6.56;100.00;100514.94;4989861;28;20642;-77
2023/04/15 01:17:52;;;;;;;70.47;29.87;;;;;;;6.44;100.00;100503.63;5003250;28;20034;-78
2023/04/15 01:20:17;;;;;;;120.37;34.53;;;;;;;6.52;100.00;100516.19;4988619;28;20069;-76
2023/04/15 01:22:44;;;;;;;92.77;34.17;;;;;;;6.59;100.00;100519.94;4989759;28;20577;-75
2023/04/15 01:25:13;;;;;;;221.13;38.55;;;;;;;6.59;100.00;100513.81;4973989;28;20356;-78
2023/04/15 01:27:41;;;;;;;135.95;37.80;;;;;;;6.59;100.00;100525.25;4973512;28;20034;-77
2023/04/15 01:30:07;;;;;;;150.32;36.92;;;;;;;6.60;100.00;100511.00;4972938;28;20038;-77
2023/04/15 01:32:33;;;;;;;168.18;44.58;;;;;;;6.66;100.00;100515.75;4988789;28;20085;-75
2023/04/15 01:34:58;;;;;;;219.60;41.00;;;;;;;6.58;100.00;100507.66;5005185;28;20027;-77
2023/04/15 01:37:24;;;;;;;242.00;45.57;;;;;;;6.62;100.00;100506.38;4990044;28;20277;-78
2023/04/15 01:39:50;;;;;;;193.65;46.63;;;;;;;6.63;100.00;100493.97;4988698;28;20034;-77
2023/04/15 01:42:16;;;;;;;105.95;34.58;;;;;;;6.56;100.00;100499.00;5005160;28;20026;-77
2023/04/15 01:44:41;;;;;;;212.77;46.38;;;;;;;6.56;100.00;100496.38;5004753;28;20495;-77
2023/04/15 01:47:11;;;;;;;194.10;43.55;;;;;;;6.55;100.00;100497.31;4988875;28;20022;-77
2023/04/15 01:49:36;;;;;;;163.70;42.40;;;;;;;6.55;100.00;100498.19;4988806;28;20495;-77
2023/04/15 01:52:01;;;;;;;176.00;48.80;;;;;;;6.61;100.00;100496.75;4972400;28;20096;-77
2023/04/15 01:54:27;;;;;;;129.23;42.83;;;;;;;6.64;100.00;100492.97;5004534;28;20034;-76
2023/04/15 01:56:52;;;;;;;204.47;46.40;;;;;;;6.61;100.00;100478.19;4972305;28;20042;-75
2023/04/15 01:59:21;;;;;;;270.48;54.75;;;;;;;6.73;100.00;100492.97;4987885;28;20292;-77
2023/04/15 02:01:46;;;;;;;136.88;45.45;;;;;;;6.68;100.00;100481.94;4987980;28;20034;-77
2023/04/15 02:04:18;;;;;;;157.20;46.80;;;;;;;6.65;100.00;100484.91;5003875;28;20410;-76
2023/04/15 02:06:44;;;;;;;178.27;48.65;;;;;;;6.66;100.00;100481.25;4987784;28;20108;-77
2023/04/15 02:09:11;;;;;;;156.02;50.53;;;;;;;6.73;100.00;100482.34;5004310;28;20113;-78
2023/04/15 02:11:36;;;;;;;237.23;57.38;;;;;;;6.74;100.00;100484.03;4987912;28;20041;-78
2023/04/15 02:14:04;;;;;;;216.27;54.03;;;;;;;6.69;100.00;100477.47;5003440;28;20494;-76
2023/04/15 02:16:30;;;;;;;189.40;51.15;;;;;;;6.65;100.00;100476.06;5005130;28;20410;-77
2023/04/15 02:18:56;;;;;;;;;;;;;;;6.78;100.00;100481.91;4972257;28;20042;-76
2023/04/15 02:21:21;;;;;;;149.73;46.35;;;;;;;6.59;100.00;100464.22;4987051;28;19920;-77
2023/04/15 02:23:47;;;;;;;169.80;54.33;;;;;;;6.64;100.00;100475.25;4987058;28;20101;-76
2023/04/15 02:26:13;;;;;;;123.25;45.38;;;;;;;6.74;100.00;100470.78;4987703;28;20037;-76
2023/04/15 02:28:38;;;;;;;157.75;50.90;;;;;;;6.64;100.00;100469.09;4970957;28;20038;-77
2023/04/15 02:31:05;;;;;;;150.05;48.53;;;;;;;6.67;100.00;100469.69;4987156;28;20113;-78
2023/04/15 02:33:31;;;;;;;127.05;46.92;;;;;;;6.66;100.00;100469.81;5002996;28;20041;-77
2023/04/15 02:35:59;;;;;;;107.75;45.55;;;;;;;6.62;100.00;100463.94;4987353;28;20037;-77
2023/04/15 02:38:26;;;;;;;122.22;49.15;;;;;;;6.65;100.00;100465.47;4987238;28;20042;-78
2023/04/15 02:40:52;;;;;;;113.33;44.40;;;;;;;6.68;100.00;100465.19;4988695;28;20022;-77
2023/04/15 02:43:17;;;;;;;120.75;48.63;;;;;;;6.69;100.00;100467.69;5003198;28;20691;-76
2023/04/15 02:45:45;;;;;;;111.22;47.70;;;;;;;6.68;100.00;100463.38;4988182;28;20031;-76
2023/04/15 02:48:10;;;;;;;107.68;46.30;;;;;;;6.68;100.00;100467.84;4987003;28;20042;-78
2023/04/15 02:50:38;;;;;;;107.83;45.10;;;;;;;6.61;100.00;100464.09;5004392;28;20255;-78
2023/04/15 02:53:04;;;;;;;127.20;49.47;;;;;;;6.62;100.00;100463.94;5003714;28;20281;-76
2023/04/15 02:55:30;;;;;;;130.88;51.90;;;;;;;6.56;100.00;100461.88;4987761;28;20181;-77
2023/04/15 02:57:57;;;;;;;127.38;49.63;;;;;;;6.71;100.00;100462.25;4987481;28;20519;-76
2023/04/15 03:00:24;;;;;;;171.35;53.53;;;;;;;6.61;100.00;100451.66;4971160;28;20018;-76
2023/04/15 03:02:54;;;;;;;163.32;52.20;;;;;;;6.70;100.00;100460.59;4978223;28;20042;-78
2023/04/15 03:05:22;;;;;;;132.77;46.15;;;;;;;6.68;100.00;100446.63;5004763;28;20511;-77
2023/04/15 03:07:49;;;;;;;127.45;50.33;;;;;;;6.69;100.00;100451.78;4987666;28;20038;-79
2023/04/15 03:10:15;;;;;;;118.63;44.80;;;;;;;6.70;100.00;100458.75;4971729;28;20403;-78
2023/04/15 03:12:43;;;;;;;187.27;49.20;;;;;;;6.59;100.00;100447.50;4972086;28;20041;-78
2023/04/15 03:15:14;;;;;;;152.48;48.50;;;;;;;6.62;100.00;100452.50;4988347;28;20026;-77
2023/04/15 03:17:43;;;;;;;132.52;45.83;;;;;;;6.63;100.00;100448.88;4987802;28;20038;-77
2023/04/15 03:20:09;;;;;;;129.20;45.43;;;;;;;6.69;100.00;100454.41;4987561;28;20556;-77
2023/04/15 03:22:34;;;;;;;208.07;55.38;;;;;;;6.60;100.00;100442.03;4971718;28;20399;-76
2023/04/15 03:25:01;;;;;;;138.10;45.90;;;;;;;6.63;100.00;100436.44;5002482;28;20100;-76
2023/04/15 03:27:26;;;;;;;129.95;45.70;;;;;;;6.73;100.00;100437.25;5004276;28;20933;-76
2023/04/15 03:29:55;;;;;;;149.88;52.75;;;;;;;6.67;100.00;100442.28;5003845;28;20038;-76
2023/04/15 03:32:22;;;;;;;183.55;51.95;;;;;;;6.63;100.00;100430.31;4987188;28;20034;-75
2023/04/15 03:34:48;;;;;;;153.10;51.40;;;;;;;6.57;100.00;100430.88;4971288;28;20030;-77
2023/04/15 03:37:13;;;;;;;145.25;51.58;;;;;;;6.65;100.00;100433.63;4971768;28;20281;-77
2023/04/15 03:39:39;;;;;;;143.40;50.03;;;;;;;6.64;100.00;100440.75;4989079;28;20049;-78
2023/04/15 03:42:04;;;;;;;163.10;53.05;;;;;;;6.70;100.00;100442.03;4987783;28;20057;-78
2023/04/15 03:44:30;;;;;;;135.77;53.58;;;;;;;6.75;100.00;100447.72;4987652;28;20041;-77
2023/04/15 03:46:55;;;;;;;162.83;54.97;;;;;;;6.76;100.00;100444.06;4989456;28;20109;-78
2023/04/15 03:49:22;;;;;;;271.60;63.13;;;;;;;6.66;100.00;100433.50;5004653;28;20116;-78
2023/04/15 03:51:47;;;;;;;;;;;;;;;6.72;100.00;100454.16;4989536;28;20277;-75
2023/04/15 03:54:14;;;;;;;174.55;56.13;;;;;;;6.65;100.00;100445.09;4989093;28;20067;-76
2023/04/15 03:56:39;;;;;;;240.13;68.40;;;;;;;6.64;100.00;100451.38;4987727;28;20049;-77
2023/04/15 03:59:05;;;;;;;257.02;61.60;;;;;;;6.65;100.00;100461.03;4987568;28;20026;-78
2023/04/15 04:01:30;;;;;;;164.20;58.07;;;;;;;6.74;100.00;100459.28;4988035;28;20023;-77
2023/04/15 04:03:55;;;;;;;231.60;64.67;;;;;;;6.68;100.00;100455.41;4988082;28;20045;-78
2023/04/15 04:06:21;;;;;;;144.07;59.97;;;;;;;6.75;100.00;100456.50;5003712;28;20380;-77
2023/04/15 04:08:46;;;;;;;186.00;65.07;;;;;;;6.74;100.00;100459.28;4987127;28;20066;-77
2023/04/15 04:11:11;;;;;;;161.17;62.80;;;;;;;6.68;100.00;100457.25;5003640;28;20030;-78
2023/04/15 04:13:37;;;;;;;172.77;60.33;;;;;;;6.65;100.00;100447.75;4988686;28;20492;-76
2023/04/15 04:16:03;;;;;;;186.70;64.07;;;;;;;6.66;100.00;100445.94;4987376;28;20128;-75
2023/04/15 04:18:29;;;;;;;;;;;;;;;6.71;100.00;100438.38;4987906;28;20034;-78
2023/04/15 04:20:54;;;;;;;169.25;60.30;;;;;;;6.68;100.00;100438.66;4987135;28;19946;-76
2023/04/15 04:23:20;;;;;;;150.43;57.97;;;;;;;6.62;100.00;100440.06;4970741;28;20109;-78
2023/04/15 04:25:45;;;;;;;136.57;57.63;;;;;;;6.69;100.00;100451.78;5003827;28;20325;-78
2023/04/15 04:28:10;;;;;;;136.57;56.63;;;;;;;6.72;100.00;100448.84;4987291;28;20506;-78
2023/04/15 04:30:36;;;;;;;126.97;54.67;;;;;;;6.70;100.00;100450.81;5003518;28;20035;-77
2023/04/15 04:33:02;;;;;;;129.27;54.35;;;;;;;6.74;100.00;100457.50;4986971;28;20034;-76
2023/04/15 04:35:27;;;;;;;138.95;56.13;;;;;;;6.72;100.00;100451.50;4990280;28;20456;-74
2023/04/15 04:37:53;;;;;;;170.60;63.07;;;;;;;6.72;100.00;100462.13;5007553;28;20046;-75
2023/04/15 04:40:18;;;;;;;132.17;59.83;;;;;;;6.71;100.00;100449.81;4992612;28;20034;-77
2023/04/15 04:42:43;;;;;;;135.90;55.90;;;;;;;6.65;100.00;100455.72;5007560;28;20041;-79
2023/04/15 04:45:09;;;;;;;121.80;53.13;;;;;;;6.72;100.00;100450.66;4991086;28;20595;-76
2023/04/15 04:47:34;;;;;;;126.72;55.75;;;;;;;6.69;100.00;100449.13;4990981;28;20030;-77
2023/04/15 04:50:00;;;;;;;130.20;59.17;;;;;;;6.74;100.00;100454.84;4991515;28;20404;-78
2023/04/15 04:52:25;;;;;;;128.33;53.87;;;;;;;6.73;100.00;100455.81;5006954;28;20038;-77
2023/04/15 04:54:50;;;;;;;128.93;55.23;;;;;;;6.74;100.00;100457.50;4990074;28;20032;-77
2023/04/15 04:57:16;;;;;;;137.60;57.03;;;;;;;6.69;100.00;100451.78;4973799;28;20506;-78
2023/04/15 04:59:41;;;;;;;139.60;56.30;;;;;;;6.74;100.00;100465.47;5006081;28;20115;-77
2023/04/15 05:02:07;;;;;;;131.43;55.85;;;;;;;6.75;100.00;100461.00;4989751;28;20069;-77
2023/04/15 05:04:33;;;;;;;132.00;55.93;;;;;;;6.80;100.00;100473.81;5006354;28;20041;-74
2023/04/15 05:06:58;;;;;;;;;;;;;;;6.80;100.00;100487.91;4990065;28;20045;-77
2023/04/15 05:09:24;;;;;;;114.45;52.95;;;;;;;6.82;100.00;100487.78;4989907;28;19914;-77
2023/04/15 05:11:49;;;;;;;124.77;54.93;;;;;;;6.85;100.00;100482.19;4989290;28;20030;-78
2023/04/15 05:14:15;;;;;;;136.50;56.03;;;;;;;6.83;100.00;100478.81;5006567;28;20031;-77
2023/04/15 05:16:40;;;;;;;144.75;57.72;;;;;;;6.87;100.00;100480.22;4991004;28;20483;-76
2023/04/15 05:19:06;;;;;;;130.57;54.17;;;;;;;6.88;100.00;100480.09;4973428;28;20045;-76
2023/04/15 05:21:32;;;;;;;143.88;58.10;;;;;;;6.89;100.00;100478.25;5006413;28;20053;-78
2023/04/15 05:23:57;;;;;;;145.27;60.20;;;;;;;6.85;100.00;100482.19;5006032;28;20046;-74
2023/04/15 05:26:23;;;;;;;137.80;55.67;;;;;;;6.92;100.00;100473.47;4992022;28;20610;-75
2023/04/15 05:28:49;;;;;;;156.63;58.60;;;;;;;6.96;100.00;100479.34;4973881;28;20042;-77
2023/04/15 05:31:15;;;;;;;143.70;58.75;;;;;;;6.94;100.00;100463.56;4990757;28;20034;-77
2023/04/15 05:33:40;;;;;;;140.07;58.05;;;;;;;6.95;100.00;100464.38;4990221;28;20022;-79
2023/04/15 05:36:06;;;;;;;142.45;59.03;;;;;;;6.99;100.00;100471.09;5006893;28;20035;-78
2023/04/15 05:38:31;;;;;;;134.82;54.28;;;;;;;7.00;100.00;100477.22;5006586;28;20128;-78
2023/04/15 05:40:57;;;;;;;131.20;57.80;;;;;;;6.87;100.00;100467.78;4989833;28;20763;-76
2023/04/15 05:43:22;;;;;;;137.63;56.30;;;;;;;6.90;100.00;100470.13;5007061;28;20539;-74
2023/04/15 05:45:47;;;;;;;132.90;58.17;;;;;;;6.92;100.00;100475.31;4990244;28;20848;-75
2023/04/15 05:48:13;;;;;;;126.50;55.47;;;;;;;6.91;100.00;100481.59;4988842;28;20034;-77
2023/04/15 05:50:41;;;;;;;128.37;53.80;;;;;;;6.94;100.00;100487.44;5006723;28;20029;-78
2023/04/15 05:53:07;;;;;;;128.18;56.58;;;;;;;6.94;100.00;100484.78;4991298;28;20044;-74
2023/04/15 05:55:33;;;;;;;133.43;57.97;;;;;;;6.95;100.00;100494.44;4989616;28;20687;-78
2023/04/15 05:57:58;;;;;;;130.45;55.53;;;;;;;6.94;100.00;100481.31;4990726;28;20034;-75
2023/04/15 06:00:24;;;;;;;131.23;55.70;;;;;;;7.00;100.00;100491.34;4991165;28;20041;-77
2023/04/15 06:02:52;;;;;;;118.33;53.17;;;;;;;7.02;100.00;100489.38;4973590;28;20381;-77
2023/04/15 06:05:17;;;;;;;126.03;54.55;;;;;;;6.92;100.00;100489.41;5006357;28;20480;-76
2023/04/15 06:07:43;;;;;;;114.33;51.57;;;;;;;6.94;100.00;100470.69;4990721;28;20080;-78
2023/04/15 06:10:08;;;;;;;113.03;50.30;;;;;;;6.79;100.00;100473.00;5005857;28;20026;-77
2023/04/15 06:12:34;;;;;;;119.47;55.78;;;;;;;6.91;100.00;100489.56;5005794;28;20490;-77
2023/04/15 06:14:59;;;;;;;118.18;48.85;;;;;;;6.84;100.00;100475.22;4991322;28;20038;-77
2023/04/15 06:17:25;;;;;;;111.13;52.13;;;;;;;7.02;100.00;100488.53;4989316;28;20666;-78
2023/04/15 06:19:54;;;;;;;117.43;50.20;;;;;;;7.08;100.00;100498.59;5005760;28;20045;-77
2023/04/15 06:22:21;;;;;;;118.68;49.83;;;;;;;6.95;100.00;100493.59;5005080;28;20383;-76
2023/04/15 06:24:46;;;;;;;120.38;52.53;;;;;;;7.01;100.00;100498.31;5005679;28;20073;-77
2023/04/15 06:27:12;;;;;;;119.23;51.47;;;;;;;7.10;100.00;100502.75;4991397;28;20070;-74
2023/04/15 06:29:37;;;;;;;135.67;54.80;;;;;;;7.12;100.00;100495.50;5005538;28;20543;-74
2023/04/15 06:32:02;;;;;;;118.90;53.50;;;;;;;7.18;100.00;100505.50;4990133;28;20030;-75
2023/04/15 06:34:28;;;;;;;121.10;52.57;;;;;;;7.14;100.00;100506.81;4989484;28;20110;-77
2023/04/15 06:36:53;;;;;;;135.13;55.00;;;;;;;7.20;100.00;100505.38;4989187;28;20058;-78
2023/04/15 06:39:18;;;;;;;120.63;52.95;;;;;;;7.13;100.00;100510.44;4989082;28;20510;-77
2023/04/15 06:41:44;;;;;;;110.70;51.13;;;;;;;7.17;100.00;100508.31;5006319;28;20045;-77
2023/04/15 06:44:11;;;;;;;118.50;51.05;;;;;;;7.22;100.00;100516.69;4989880;28;20029;-76
2023/04/15 06:46:36;;;;;;;118.75;51.40;;;;;;;7.21;100.00;100511.50;4989277;28;20042;-78
2023/04/15 06:49:02;;;;;;;114.83;52.53;;;;;;;7.25;100.00;100515.56;5004917;28;20046;-77
2023/04/15 06:51:28;;;;;;;111.97;49.70;;;;;;;7.27;100.00;100519.72;4989497;28;20057;-76
2023/04/15 06:53:53;;;;;;;105.90;47.57;;;;;;;7.40;100.00;100535.34;4973173;28;20121;-77
2023/04/15 06:56:18;;;;;;;111.13;53.73;;;;;;;7.40;100.00;100525.56;4989597;28;20060;-77
2023/04/15 06:58:44;;;;;;;108.73;49.90;;;;;;;7.44;100.00;100523.41;4988341;28;20500;-77
2023/04/15 07:01:09;;;;;;;110.67;50.70;;;;;;;7.33;100.00;100518.31;4988673;28;20034;-76
2023/04/15 07:03:34;;;;;;;104.57;50.10;;;;;;;7.46;100.00;100529.44;5004194;28;20053;-78
2023/04/15 07:06:00;;;;;;;95.20;48.27;;;;;;;7.52;100.00;100523.53;5003511;28;20296;-78
2023/04/15 07:08:26;;;;;;;96.93;44.92;;;;;;;7.60;100.00;100525.44;5005501;28;20034;-79
2023/04/15 07:10:51;;;;;;;96.40;46.50;;;;;;;7.48;100.00;100510.69;4990187;28;20113;-78
2023/04/15 07:13:16;;;;;;;101.33;46.53;;;;;;;7.67;100.00;100526.50;5006734;28;20780;-79
2023/04/15 07:15:42;;;;;;;88.17;44.90;;;;;;;7.65;100.00;100527.66;4974440;28;20034;-75
2023/04/15 07:18:08;;;;;;;97.87;46.77;;;;;;;7.71;100.00;100521.75;4983796;28;20510;-75
2023/04/15 07:20:33;;;;;;;;;;;;;;;7.83;100.00;100532.00;5007832;28;20026;-76
2023/04/15 07:22:59;;;;;;;96.63;45.55;;;;;;;7.88;100.00;100530.72;4986698;28;20150;-76
2023/04/15 07:25:24;;;;;;;91.33;43.07;;;;;;;7.84;100.00;100535.50;4996643;28;20034;-77
2023/04/15 07:27:50;;;;;;;92.80;43.57;;;;;;;7.90;100.00;100540.22;5002333;28;20113;-77
2023/04/15 07:30:15;;;;;;;90.38;42.65;;;;;;;7.86;100.00;100530.88;5001987;28;20036;-77
2023/04/15 07:32:41;;;;;;;92.85;42.72;;;;;;;7.90;100.00;100526.94;5001713;28;20033;-76
2023/04/15 07:35:08;;;;;;;94.95;44.88;;;;;;;7.97;100.00;100527.16;4986212;28;20038;-77
2023/04/15 07:37:34;;;;;;;90.45;45.20;;;;;;;7.90;100.00;100526.09;5002007;28;20038;-77
2023/04/15 07:39:59;;;;;;;87.82;43.40;;;;;;;7.94;100.00;100528.31;5001902;28;20108;-77
2023/04/15 07:42:24;;;;;;;84.53;44.33;;;;;;;8.01;100.00;100533.88;4987237;28;20027;-76
2023/04/15 07:44:50;;;;;;;95.60;43.90;;;;;;;7.97;100.00;100533.31;4986958;28;20538;-77
2023/04/15 07:47:16;;;;;;;85.63;41.65;;;;;;;8.08;100.00;100534.06;5002327;28;20073;-76
2023/04/15 07:49:42;;;;;;;80.83;41.67;;;;;;;8.17;100.00;100533.16;4986955;28;20454;-77
2023/04/15 07:52:07;;;;;;;86.53;42.40;;;;;;;8.25;100.00;100535.91;4986880;28;20096;-76
2023/04/15 07:54:33;;;;;;;78.20;39.07;;;;;;;8.29;100.00;100537.28;5001766;28;20018;-77
2023/04/15 07:56:58;;;;;;;77.77;37.60;;;;;;;8.45;100.00;100549.91;4986904;28;20488;-77
2023/04/15 07:59:23;;;;;;;83.97;40.20;;;;;;;8.42;100.00;100542.25;4986659;28;20437;-77
2023/04/15 08:01:49;;;;;;;73.13;38.10;;;;;;;8.37;100.00;100533.84;4986916;28;20113;-78
2023/04/15 08:04:14;;;;;;;79.27;38.67;;;;;;;8.43;100.00;100549.25;5002198;28;20046;-77
2023/04/15 08:06:40;;;;;;;84.47;40.25;;;;;;;8.49;100.00;100550.44;5002154;28;20026;-76
2023/04/15 08:09:06;;;;;;;65.40;35.67;;;;;;;8.62;100.00;100559.72;5001766;28;20035;-77
2023/04/15 08:11:31;;;;;;;74.95;35.92;;;;;;;8.55;100.00;100555.16;4988407;28;20491;-76
2023/04/15 08:13:56;;;;;;;71.93;38.73;;;;;;;8.68;100.00;100568.88;5005457;28;20089;-77
2023/04/15 08:16:24;;;;;;;62.40;35.70;;;;;;;8.71;100.00;100565.06;5005928;28;21054;-77
2023/04/15 08:18:51;;;;;;;69.80;37.47;;;;;;;8.76;100.00;100566.31;4990360;28;20380;-78
2023/04/15 08:21:18;;;;;;;64.50;35.90;;;;;;;8.86;100.00;100571.53;4990716;28;20951;-78
2023/04/15 08:23:45;;;;;;;62.35;36.03;;;;;;;9.12;100.00;100571.53;4988721;28;20107;-76
2023/04/15 08:26:11;;;;;;;65.80;35.38;;;;;;;9.23;100.00;100571.25;5005436;28;20037;-77
2023/04/15 08:28:38;;;;;;;59.53;34.90;;;;;;;9.23;100.00;100565.09;4990122;28;20913;-77
2023/04/15 08:31:04;;;;;;;59.15;33.60;;;;;;;9.44;100.00;100570.88;4989034;28;20660;-77
2023/04/15 08:33:29;;;;;;;52.42;30.38;;;;;;;9.67;100.00;100572.97;5005429;28;20117;-77
2023/04/15 08:35:55;;;;;;;56.70;33.00;;;;;;;9.80;100.00;100564.50;4990093;28;20038;-76
2023/04/15 08:38:20;;;;;;;51.22;29.95;;;;;;;9.94;100.00;100559.38;5004731;28;20399;-77
2023/04/15 08:40:46;;;;;;;47.87;28.23;;;;;;;10.36;100.00;100560.31;5005193;28;20956;-76
2023/04/15 08:43:23;;;;;;;52.67;29.80;;;;;;;10.73;100.00;100562.50;5005162;28;20022;-76
2023/04/15 08:45:50;;;;;;;43.67;27.45;;;;;;;11.15;100.00;100555.25;4972677;28;20034;-77
2023/04/15 08:48:16;;;;;;;45.42;25.70;;;;;;;11.44;100.00;100548.47;4989705;28;20062;-77
2023/04/15 08:50:41;;;;;;;48.58;26.98;;;;;;;11.84;100.00;100537.59;5005217;28;20077;-77
2023/04/15 08:53:08;;;;;;;40.35;25.25;;;;;;;12.51;100.00;100528.13;4989568;28;20063;-80
2023/04/15 08:55:35;;;;;;;;;;;;;;;12.66;100.00;100491.50;5005297;28;20032;-77
2023/04/15 08:58:01;;;;;;;30.73;18.67;;;;;;;13.09;100.00;100454.19;4989257;28;20430;-77
2023/04/15 09:00:28;;;;;;;37.35;20.80;;;;;;;13.57;100.00;100404.66;4988202;28;20038;-78
2023/04/15 09:02:55;;;;;;;33.85;20.58;;;;;;;14.33;100.00;100381.59;5004087;28;20062;-78
2023/04/15 09:05:21;;;;;;;32.30;19.92;;;;;;;14.44;100.00;100302.31;4987841;28;20106;-77
2023/04/15 09:07:47;;;;;;;27.85;18.42;;;;;;;14.71;100.00;100229.94;5005180;28;20096;-79
2023/04/15 09:10:13;;;;;;;29.73;19.08;;;;;;;15.32;100.00;100204.81;4990229;28;20032;-76
2023/04/15 09:12:38;;;;;;;30.67;18.27;;;;;;;15.28;100.00;100059.19;4973950;28;20446;-77
2023/04/15 09:15:04;;;;;;;32.72;18.30;;;;;;;15.58;100.00;99964.53;4984414;28;20487;-77
2023/04/15 09:17:32;;;;;;;28.70;19.08;;;;;;;15.77;100.00;99914.38;4988434;28;20046;-77
2023/04/15 09:20:12;;;;;;;27.23;16.77;;;;;;;16.22;100.00;99825.38;4971819;28;20377;-77
2023/04/15 09:22:38;;;;;;;28.17;18.20;;;;;;;16.17;100.00;99730.97;5004319;28;20121;-77
2023/04/15 09:25:25;;;;;;;25.02;16.23;;;;;;;15.64;100.00;99530.50;4991465;28;20030;-77
2023/04/15 09:27:56;;;;;;;25.95;15.57;;;;;;;16.11;100.00;99670.78;5006441;28;20054;-77
2023/04/15 09:30:22;;;;;;;20.27;15.40;;;;;;;16.21;100.00;99598.34;4991935;28;20057;-77
2023/04/15 09:32:53;;;;;;;21.38;15.70;;;;;;;15.76;100.00;99291.13;5006122;28;20093;-77
2023/04/15 09:35:22;;;;;;;22.15;15.60;;;;;;;15.99;100.00;99422.19;4990123;28;20041;-76
2023/04/15 09:37:49;;;;;;;26.23;15.15;;;;;;;16.53;100.00;99400.63;5006235;28;20069;-77
2023/04/15 09:40:33;;;;;;;22.58;14.98;;;;;;;16.54;100.00;99283.75;4990201;28;20066;-78
2023/04/15 09:43:00;;;;;;;23.25;14.05;;;;;;;16.97;100.00;99244.72;4998472;28;20636;-77
2023/04/15 09:45:26;;;;;;;16.63;13.45;;;;;;;17.47;100.00;99111.81;4988229;28;20029;-79
2023/04/15 09:47:52;;;;;;;21.85;13.93;;;;;;;17.92;100.00;99191.84;4990586;28;20049;-76
2023/04/15 09:50:20;;;;;;;22.43;14.50;;;;;;;17.51;100.00;98854.78;4992098;28;20112;-77
2023/04/15 09:52:46;;;;;;;25.98;14.88;;;;;;;17.55;100.00;99105.19;5005622;28;20068;-78
2023/04/15 09:55:13;;;;;;;23.25;15.48;;;;;;;16.67;100.00;99138.78;5006858;28;20062;-76
2023/04/15 09:57:43;;;;;;;26.83;18.25;;;;;;;15.75;100.00;99053.50;4973828;28;20502;-77
2023/04/15 10:00:12;;;;;;;25.00;17.25;;;;;;;15.07;100.00;99283.41;4990515;28;20069;-76
2023/04/15 10:02:40;;;;;;;27.10;17.73;;;;;;;15.09;100.00;99528.59;4988841;28;20050;-78
2023/04/15 10:05:07;;;;;;;23.55;15.77;;;;;;;15.37;100.00;99516.53;5006621;28;20483;-78
2023/04/15 10:07:33;;;;;;;23.67;15.80;;;;;;;15.39;100.00;99597.81;4991047;28;20038;-76
2023/04/15 10:10:01;;;;;;;22.27;14.00;;;;;;;16.08;100.00;99660.44;5005920;28;20026;-77
2023/04/15 10:12:27;;;;;;;18.25;12.77;;;;;;;16.27;100.00;99359.63;4986728;28;20600;-78
2023/04/15 10:14:58;;;;;;;16.77;11.65;;;;;;;16.70;100.00;99204.84;4985736;28;20569;-77
2023/04/15 10:17:32;;;;;;;17.08;11.13;;;;;;;17.11;100.00;98968.34;4990312;28;20041;-78
2023/04/15 10:20:00;;;;;;;14.82;11.85;;;;;;;17.25;100.00;98961.53;4973490;28;20042;-77
2023/04/15 10:22:27;;;;;;;16.92;13.18;;;;;;;17.82;98.17;98840.81;5005938;28;20108;-78
2023/04/15 10:24:54;;;;;;;16.15;10.98;;;;;;;18.02;96.02;98761.84;4990849;28;20030;-78
2023/04/15 10:27:20;;;;;;;15.15;12.60;;;;;;;16.88;92.86;98314.50;4989782;28;20030;-78
2023/04/15 10:29:48;;;;;;;21.05;13.73;;;;;;;16.65;94.65;98660.53;4973160;28;20053;-78
2023/04/15 10:32:15;;;;;;;16.38;12.27;;;;;;;17.18;95.36;98884.59;4989778;28;20035;-76
2023/04/15 10:34:41;;;;;;;17.77;12.65;;;;;;;16.42;92.22;98554.69;4974152;28;20052;-78
2023/04/15 10:37:09;;;;;;;18.40;11.57;;;;;;;16.76;93.08;98813.13;4995546;28;20033;-78
2023/04/15 10:39:35;;;;;;;15.43;11.90;;;;;;;16.99;89.20;98498.63;4974042;28;20061;-78
2023/04/15 10:42:08;;;;;;;19.47;13.07;;;;;;;17.07;87.55;98417.28;5001506;28;20058;-77
2023/04/15 10:44:37;;;;;;;17.90;12.93;;;;;;;17.67;88.68;98780.16;4988725;28;20113;-78
2023/04/15 10:47:12;;;;;;;19.70;13.07;;;;;;;18.06;90.04;98981.69;4984562;28;20057;-77
2023/04/15 10:49:45;;;;;;;16.90;12.85;;;;;;;17.13;87.04;98494.41;4988168;28;20072;-76
2023/04/15 10:52:11;;;;;;;18.38;12.38;;;;;;;17.15;87.02;98580.44;4982364;28;20031;-79
2023/04/15 10:54:38;;;;;;;18.58;12.15;;;;;;;16.55;86.94;98512.25;4985777;28;20034;-75
2023/04/15 10:57:03;;;;;;;20.42;13.40;;;;;;;15.89;90.54;98819.94;4987777;28;20034;-78
2023/04/15 10:59:29;;;;;;;18.07;14.17;;;;;;;16.50;88.96;98819.25;4971564;28;20029;-79
2023/04/15 11:01:58;;;;;;;;;;;;;;;16.84;85.75;98590.97;4990130;28;20034;-79